sensor_id;sensor_type;location;lat;lon;timestamp;pressure;altitude;pressure_sealevel;temperature;humidity
7768;BME280;3928;42.626;23.382;2023-02-28T00:01:05;94612.25;;;11.11;88.44
7768;BME280;3928;42.626;23.382;2023-02-28T00:03:32;94607.06;;;11.16;88.16
7768;BME280;3928;42.626;23.382;2023-02-28T00:06:00;94622.47;;;11.16;88.17
7768;BME280;3928;42.626;23.382;2023-02-28T00:08:27;94616.56;;;11.09;88.05
7768;BME280;3928;42.626;23.382;2023-02-28T00:10:55;94619.09;;;11.10;88.11
7768;BME280;3928;42.626;23.382;2023-02-28T00:13:22;94609.69;;;11.11;87.59
7768;BME280;3928;42.626;23.382;2023-02-28T00:15:58;94622.38;;;11.22;88.02
7768;BME280;3928;42.626;23.382;2023-02-28T00:18:25;94618.81;;;11.32;87.57
7768;BME280;3928;42.626;23.382;2023-02-28T00:20:52;94627.25;;;11.40;86.97
7768;BME280;3928;42.626;23.382;2023-02-28T00:23:19;94618.56;;;11.47;87.23
7768;BME280;3928;42.626;23.382;2023-02-28T00:25:46;94624.41;;;11.57;86.32
7768;BME280;3928;42.626;23.382;2023-02-28T00:28:14;94615.72;;;11.65;85.76
7768;BME280;3928;42.626;23.382;2023-02-28T00:30:41;94611.41;;;11.67;85.32
7768;BME280;3928;42.626;23.382;2023-02-28T00:33:07;94616.47;;;11.74;84.90
7768;BME280;3928;42.626;23.382;2023-02-28T00:35:34;94622.38;;;11.80;84.33
7768;BME280;3928;42.626;23.382;2023-02-28T00:38:01;94613.00;;;11.75;83.78
7768;BME280;3928;42.626;23.382;2023-02-28T00:40:28;94611.34;;;11.70;84.42
7768;BME280;3928;42.626;23.382;2023-02-28T00:42:55;94600.16;;;11.75;84.76
7768;BME280;3928;42.626;23.382;2023-02-28T00:45:23;94613.00;;;11.76;84.70
7768;BME280;3928;42.626;23.382;2023-02-28T00:47:50;94596.31;;;11.46;85.33
7768;BME280;3928;42.626;23.382;2023-02-28T00:50:17;94598.84;;;11.48;85.39
7768;BME280;3928;42.626;23.382;2023-02-28T00:52:45;94597.97;;;11.50;85.98
7768;BME280;3928;42.626;23.382;2023-02-28T00:55:12;94605.75;;;11.46;86.15
7768;BME280;3928;42.626;23.382;2023-02-28T00:57:39;94613.44;;;11.47;85.38
7768;BME280;3928;42.626;23.382;2023-02-28T01:00:08;94620.25;;;11.51;84.96
7768;BME280;3928;42.626;23.382;2023-02-28T01:02:36;94613.44;;;11.49;85.22
7768;BME280;3928;42.626;23.382;2023-02-28T01:05:03;94622.78;;;11.53;85.36
7768;BME280;3928;42.626;23.382;2023-02-28T01:07:30;94616.78;;;11.52;85.83
7768;BME280;3928;42.626;23.382;2023-02-28T01:09:57;94608.16;;;11.56;85.35
7768;BME280;3928;42.626;23.382;2023-02-28T01:12:24;94615.66;;;11.68;85.38
7768;BME280;3928;42.626;23.382;2023-02-28T01:14:50;94609.66;;;11.69;85.03
7768;BME280;3928;42.626;23.382;2023-02-28T01:17:17;94603.59;;;11.74;85.14
7768;BME280;3928;42.626;23.382;2023-02-28T01:19:45;94602.69;;;11.76;84.38
7768;BME280;3928;42.626;23.382;2023-02-28T01:22:12;94606.09;;;11.80;84.39
7768;BME280;3928;42.626;23.382;2023-02-28T01:24:39;94603.50;;;11.81;84.24
7768;BME280;3928;42.626;23.382;2023-02-28T01:27:06;94599.22;;;11.80;83.95
7768;BME280;3928;42.626;23.382;2023-02-28T01:29:32;94601.63;;;11.91;83.18
7768;BME280;3928;42.626;23.382;2023-02-28T01:31:59;94594.69;;;11.96;83.34
7768;BME280;3928;42.626;23.382;2023-02-28T01:34:26;94590.41;;;11.95;82.99
7768;BME280;3928;42.626;23.382;2023-02-28T01:36:54;94602.41;;;11.96;83.14
7768;BME280;3928;42.626;23.382;2023-02-28T01:39:21;94594.66;;;11.97;82.96
7768;BME280;3928;42.626;23.382;2023-02-28T01:41:48;94618.94;;;11.78;83.26
7768;BME280;3928;42.626;23.382;2023-02-28T01:47:19;94606.03;;;11.83;83.38
7768;BME280;3928;42.626;23.382;2023-02-28T01:49:47;94614.66;;;11.79;82.83
7768;BME280;3928;42.626;23.382;2023-02-28T01:52:16;94612.94;;;11.81;83.17
7768;BME280;3928;42.626;23.382;2023-02-28T01:54:45;94617.28;;;11.76;83.08
7768;BME280;3928;42.626;23.382;2023-02-28T01:57:18;94610.97;;;11.41;84.50
7768;BME280;3928;42.626;23.382;2023-02-28T01:59:48;94603.69;;;11.10;85.70
7768;BME280;3928;42.626;23.382;2023-02-28T02:02:19;94610.84;;;10.90;87.50
7768;BME280;3928;42.626;23.382;2023-02-28T02:04:52;94616.09;;;10.81;88.65
7768;BME280;3928;42.626;23.382;2023-02-28T02:07:23;94612.91;;;10.61;89.47
7768;BME280;3928;42.626;23.382;2023-02-28T02:10:00;94607.75;;;10.61;89.38
7768;BME280;3928;42.626;23.382;2023-02-28T02:12:34;94612.84;;;10.67;89.43
7768;BME280;3928;42.626;23.382;2023-02-28T02:15:09;94618.81;;;10.67;89.48
7768;BME280;3928;42.626;23.382;2023-02-28T02:17:39;94576.47;;;10.31;90.14
7768;BME280;3928;42.626;23.382;2023-02-28T02:26:57;94617.75;;;10.04;93.47
7768;BME280;3928;42.626;23.382;2023-02-28T02:29:47;94599.91;;;9.93;94.71
7768;BME280;3928;42.626;23.382;2023-02-28T02:35:14;94599.91;;;9.94;94.90
7768;BME280;3928;42.626;23.382;2023-02-28T02:37:49;94598.97;;;10.02;94.05
7768;BME280;3928;42.626;23.382;2023-02-28T02:40:19;94599.00;;;10.00;94.52
7768;BME280;3928;42.626;23.382;2023-02-28T02:42:51;94609.94;;;10.16;93.77
7768;BME280;3928;42.626;23.382;2023-02-28T02:45:25;94603.06;;;10.24;93.07
7768;BME280;3928;42.626;23.382;2023-02-28T02:47:53;94602.97;;;10.33;93.02
7768;BME280;3928;42.626;23.382;2023-02-28T02:50:25;94611.38;;;10.44;91.63
7768;BME280;3928;42.626;23.382;2023-02-28T02:52:57;94615.47;;;10.61;91.60
7768;BME280;3928;42.626;23.382;2023-02-28T02:55:27;94607.63;;;10.73;90.69
7768;BME280;3928;42.626;23.382;2023-02-28T02:57:57;94597.41;;;10.70;89.86
7768;BME280;3928;42.626;23.382;2023-02-28T03:00:31;94613.34;;;10.93;89.25
7768;BME280;3928;42.626;23.382;2023-02-28T03:03:01;94635.41;;;11.08;88.87
7768;BME280;3928;42.626;23.382;2023-02-28T03:05:35;94644.72;;;11.17;88.54
7768;BME280;3928;42.626;23.382;2023-02-28T03:08:06;94642.91;;;11.25;88.12
7768;BME280;3928;42.626;23.382;2023-02-28T03:10:36;94648.84;;;11.28;87.79
7768;BME280;3928;42.626;23.382;2023-02-28T03:13:13;94649.59;;;11.35;87.33
7768;BME280;3928;42.626;23.382;2023-02-28T03:15:53;94653.84;;;11.37;86.78
7768;BME280;3928;42.626;23.382;2023-02-28T03:18:28;94662.25;;;11.47;86.47
7768;BME280;3928;42.626;23.382;2023-02-28T03:21:06;94660.53;;;11.48;86.13
7768;BME280;3928;42.626;23.382;2023-02-28T03:23:41;94663.25;;;11.38;85.70
7768;BME280;3928;42.626;23.382;2023-02-28T03:26:13;94676.34;;;11.20;84.99
7768;BME280;3928;42.626;23.382;2023-02-28T03:28:51;94667.34;;;10.87;84.94
7768;BME280;3928;42.626;23.382;2023-02-28T03:31:24;94653.19;;;10.52;86.22
7768;BME280;3928;42.626;23.382;2023-02-28T03:33:58;94671.97;;;10.58;88.14
7768;BME280;3928;42.626;23.382;2023-02-28T03:36:29;94657.63;;;10.38;87.92
7768;BME280;3928;42.626;23.382;2023-02-28T03:38:58;94632.13;;;10.24;87.88
7768;BME280;3928;42.626;23.382;2023-02-28T03:41:31;94675.47;;;10.49;88.73
7768;BME280;3928;42.626;23.382;2023-02-28T03:44:05;94672.13;;;10.42;88.56
7768;BME280;3928;42.626;23.382;2023-02-28T03:46:37;94681.50;;;10.46;87.93
7768;BME280;3928;42.626;23.382;2023-02-28T03:49:09;94685.75;;;10.47;87.93
7768;BME280;3928;42.626;23.382;2023-02-28T03:51:42;94682.38;;;10.41;87.75
7768;BME280;3928;42.626;23.382;2023-02-28T03:54:13;94681.66;;;10.28;88.18
7768;BME280;3928;42.626;23.382;2023-02-28T03:56:46;94685.03;;;10.35;88.80
7768;BME280;3928;42.626;23.382;2023-02-28T03:59:18;94672.13;;;10.42;89.34
7768;BME280;3928;42.626;23.382;2023-02-28T04:01:49;94676.31;;;10.49;88.19
7768;BME280;3928;42.626;23.382;2023-02-28T04:04:17;94674.81;;;10.30;88.47
7768;BME280;3928;42.626;23.382;2023-02-28T04:06:49;94666.13;;;10.45;89.09
7768;BME280;3928;42.626;23.382;2023-02-28T04:09:17;94662.59;;;10.53;88.63
7768;BME280;3928;42.626;23.382;2023-02-28T04:11:46;94660.97;;;10.46;88.84
7768;BME280;3928;42.626;23.382;2023-02-28T04:14:16;94670.50;;;10.34;88.76
7768;BME280;3928;42.626;23.382;2023-02-28T04:16:44;94679.84;;;10.39;88.91
7768;BME280;3928;42.626;23.382;2023-02-28T04:19:12;94667.97;;;10.29;88.60
7768;BME280;3928;42.626;23.382;2023-02-28T04:21:41;94673.09;;;10.29;88.86
7768;BME280;3928;42.626;23.382;2023-02-28T04:24:11;94673.22;;;10.14;89.55
7768;BME280;3928;42.626;23.382;2023-02-28T04:26:40;94670.53;;;10.31;90.05
7768;BME280;3928;42.626;23.382;2023-02-28T04:29:09;94644.09;;;10.21;89.50
7768;BME280;3928;42.626;23.382;2023-02-28T04:31:37;94664.50;;;10.36;89.52
7768;BME280;3928;42.626;23.382;2023-02-28T04:34:04;94664.44;;;10.41;89.43
7768;BME280;3928;42.626;23.382;2023-02-28T04:36:31;94661.00;;;10.43;89.41
7768;BME280;3928;42.626;23.382;2023-02-28T04:38:58;94670.38;;;10.46;89.49
7768;BME280;3928;42.626;23.382;2023-02-28T04:41:26;94681.53;;;10.43;88.59
7768;BME280;3928;42.626;23.382;2023-02-28T04:43:53;94687.50;;;10.45;88.94
7768;BME280;3928;42.626;23.382;2023-02-28T04:46:21;94701.16;;;10.46;88.83
7768;BME280;3928;42.626;23.382;2023-02-28T04:48:49;94693.59;;;10.34;88.92
7768;BME280;3928;42.626;23.382;2023-02-28T04:51:18;94686.88;;;10.22;89.08
7768;BME280;3928;42.626;23.382;2023-02-28T04:53:46;94685.25;;;10.09;89.94
7768;BME280;3928;42.626;23.382;2023-02-28T04:56:15;94700.47;;;10.27;89.68
7768;BME280;3928;42.626;23.382;2023-02-28T04:58:44;94645.94;;;10.07;89.98
7768;BME280;3928;42.626;23.382;2023-02-28T05:01:19;94691.06;;;10.28;89.14
7768;BME280;3928;42.626;23.382;2023-02-28T05:03:47;94706.47;;;10.26;89.95
7768;BME280;3928;42.626;23.382;2023-02-28T05:06:14;94697.91;;;10.29;88.37
7768;BME280;3928;42.626;23.382;2023-02-28T05:08:41;94689.34;;;10.33;88.77
7768;BME280;3928;42.626;23.382;2023-02-28T05:11:14;94697.03;;;10.31;88.63
7768;BME280;3928;42.626;23.382;2023-02-28T05:13:43;94704.66;;;10.37;89.14
7768;BME280;3928;42.626;23.382;2023-02-28T05:16:09;94712.44;;;10.31;89.08
7768;BME280;3928;42.626;23.382;2023-02-28T05:18:36;94715.88;;;10.25;90.15
7768;BME280;3928;42.626;23.382;2023-02-28T05:21:03;94693.69;;;10.20;89.65
7768;BME280;3928;42.626;23.382;2023-02-28T05:23:30;94718.34;;;10.38;89.64
7768;BME280;3928;42.626;23.382;2023-02-28T05:25:57;94697.03;;;10.33;89.03
7768;BME280;3928;42.626;23.382;2023-02-28T05:28:24;94716.50;;;10.50;89.01
7768;BME280;3928;42.626;23.382;2023-02-28T05:30:52;94714.75;;;10.56;87.92
7768;BME280;3928;42.626;23.382;2023-02-28T05:33:19;94712.19;;;10.56;88.05
7768;BME280;3928;42.626;23.382;2023-02-28T05:35:46;94700.25;;;10.51;88.37
7768;BME280;3928;42.626;23.382;2023-02-28T05:38:12;94726.59;;;10.70;87.36
7768;BME280;3928;42.626;23.382;2023-02-28T05:40:39;94728.22;;;10.79;86.90
7768;BME280;3928;42.626;23.382;2023-02-28T05:43:10;94717.13;;;10.74;86.85
7768;BME280;3928;42.626;23.382;2023-02-28T05:45:37;94739.22;;;10.87;86.41
7768;BME280;3928;42.626;23.382;2023-02-28T05:48:06;94741.72;;;10.95;86.89
7768;BME280;3928;42.626;23.382;2023-02-28T05:50:32;94744.22;;;11.02;85.84
7768;BME280;3928;42.626;23.382;2023-02-28T05:52:59;94743.38;;;11.02;85.93
7768;BME280;3928;42.626;23.382;2023-02-28T05:55:26;94746.72;;;11.07;85.50
7768;BME280;3928;42.626;23.382;2023-02-28T05:57:53;94745.88;;;11.06;85.09
7768;BME280;3928;42.626;23.382;2023-02-28T06:00:20;94740.75;;;11.05;85.42
7768;BME280;3928;42.626;23.382;2023-02-28T06:02:47;94733.16;;;10.96;85.08
7768;BME280;3928;42.626;23.382;2023-02-28T06:05:17;94725.53;;;10.88;85.86
7768;BME280;3928;42.626;23.382;2023-02-28T06:07:44;94740.13;;;10.84;85.99
7768;BME280;3928;42.626;23.382;2023-02-28T06:10:11;94740.19;;;10.80;86.52
7768;BME280;3928;42.626;23.382;2023-02-28T06:12:38;94734.13;;;10.84;86.74
7768;BME280;3928;42.626;23.382;2023-02-28T06:15:07;94737.47;;;10.92;86.78
7768;BME280;3928;42.626;23.382;2023-02-28T06:17:37;94738.38;;;10.90;86.67
7768;BME280;3928;42.626;23.382;2023-02-28T06:20:05;94731.53;;;10.86;87.08
7768;BME280;3928;42.626;23.382;2023-02-28T06:22:34;94745.94;;;11.00;87.63
7768;BME280;3928;42.626;23.382;2023-02-28T06:25:01;94734.72;;;11.07;86.37
7768;BME280;3928;42.626;23.382;2023-02-28T06:27:28;94732.94;;;11.12;86.47
7768;BME280;3928;42.626;23.382;2023-02-28T06:29:54;94746.56;;;11.21;86.13
7768;BME280;3928;42.626;23.382;2023-02-28T06:32:22;94749.06;;;11.27;86.18
7768;BME280;3928;42.626;23.382;2023-02-28T06:34:49;94747.44;;;11.20;86.47
7768;BME280;3928;42.626;23.382;2023-02-28T06:37:16;94746.56;;;11.21;86.58
7768;BME280;3928;42.626;23.382;2023-02-28T06:39:44;94747.38;;;11.23;86.01
7768;BME280;3928;42.626;23.382;2023-02-28T06:42:11;94710.94;;;10.93;86.10
7768;BME280;3928;42.626;23.382;2023-02-28T06:44:38;94746.63;;;11.16;86.81
7768;BME280;3928;42.626;23.382;2023-02-28T06:47:05;94751.69;;;11.21;87.45
7768;BME280;3928;42.626;23.382;2023-02-28T06:49:34;94736.38;;;11.15;87.25
7768;BME280;3928;42.626;23.382;2023-02-28T06:52:01;94747.38;;;11.23;86.91
7768;BME280;3928;42.626;23.382;2023-02-28T06:54:28;94721.84;;;11.10;86.14
7768;BME280;3928;42.626;23.382;2023-02-28T06:56:57;94757.41;;;11.42;86.58
7768;BME280;3928;42.626;23.382;2023-02-28T06:59:24;94772.81;;;11.44;86.13
7768;BME280;3928;42.626;23.382;2023-02-28T07:01:51;94769.31;;;11.51;85.95
7768;BME280;3928;42.626;23.382;2023-02-28T07:04:17;94762.47;;;11.50;85.85
7768;BME280;3928;42.626;23.382;2023-02-28T07:06:44;94749.50;;;11.58;85.71
7768;BME280;3928;42.626;23.382;2023-02-28T07:09:11;94769.19;;;11.60;85.93
7768;BME280;3928;42.626;23.382;2023-02-28T07:11:39;94760.56;;;11.64;85.05
7768;BME280;3928;42.626;23.382;2023-02-28T07:14:09;94763.03;;;11.70;85.28
7768;BME280;3928;42.626;23.382;2023-02-28T07:16:36;94750.22;;;11.67;85.50
7768;BME280;3928;42.626;23.382;2023-02-28T07:19:03;94756.25;;;11.66;85.48
7768;BME280;3928;42.626;23.382;2023-02-28T07:21:30;94754.47;;;11.73;85.56
7768;BME280;3928;42.626;23.382;2023-02-28T07:23:56;94753.50;;;11.79;85.98
7768;BME280;3928;42.626;23.382;2023-02-28T07:26:25;94755.19;;;11.84;84.96
7768;BME280;3928;42.626;23.382;2023-02-28T07:28:51;94766.19;;;11.92;85.42
7768;BME280;3928;42.626;23.382;2023-02-28T07:31:21;94760.97;;;11.98;85.37
7768;BME280;3928;42.626;23.382;2023-02-28T07:33:47;94759.28;;;11.94;85.29
7768;BME280;3928;42.626;23.382;2023-02-28T07:36:16;94754.22;;;11.91;86.10
7768;BME280;3928;42.626;23.382;2023-02-28T07:38:46;94738.81;;;11.90;86.66
7768;BME280;3928;42.626;23.382;2023-02-28T07:41:14;94755.66;;;12.09;86.86
7768;BME280;3928;42.626;23.382;2023-02-28T07:43:41;94755.47;;;12.21;86.74
7768;BME280;3928;42.626;23.382;2023-02-28T07:46:09;94759.78;;;12.19;85.99
7768;BME280;3928;42.626;23.382;2023-02-28T07:48:38;94754.56;;;12.24;86.62
7768;BME280;3928;42.626;23.382;2023-02-28T07:51:05;94680.41;;;11.96;87.14
7768;BME280;3928;42.626;23.382;2023-02-28T07:53:33;94764.53;;;12.45;87.27
7768;BME280;3928;42.626;23.382;2023-02-28T07:56:01;94754.53;;;12.27;88.97
7768;BME280;3928;42.626;23.382;2023-02-28T07:58:29;94756.84;;;12.42;88.87
7768;BME280;3928;42.626;23.382;2023-02-28T08:00:57;94757.38;;;12.61;88.75
7768;BME280;3928;42.626;23.382;2023-02-28T08:03:24;94753.84;;;12.68;88.44
7768;BME280;3928;42.626;23.382;2023-02-28T08:05:52;94754.34;;;12.87;87.68
7768;BME280;3928;42.626;23.382;2023-02-28T08:08:19;94751.66;;;12.93;86.63
7768;BME280;3928;42.626;23.382;2023-02-28T08:10:46;94749.09;;;12.93;87.72
7768;BME280;3928;42.626;23.382;2023-02-28T08:13:13;94746.47;;;12.95;87.83
7768;BME280;3928;42.626;23.382;2023-02-28T08:15:41;94759.13;;;13.07;87.60
7768;BME280;3928;42.626;23.382;2023-02-28T08:18:08;94755.41;;;13.23;87.67
7768;BME280;3928;42.626;23.382;2023-02-28T08:20:35;94747.13;;;13.06;88.07
7768;BME280;3928;42.626;23.382;2023-02-28T08:23:03;94757.69;;;13.38;87.85
7768;BME280;3928;42.626;23.382;2023-02-28T08:25:30;94751.34;;;13.55;86.57
7768;BME280;3928;42.626;23.382;2023-02-28T08:27:56;94756.34;;;13.62;86.55
7768;BME280;3928;42.626;23.382;2023-02-28T08:30:23;94751.75;;;13.75;86.58
7768;BME280;3928;42.626;23.382;2023-02-28T08:32:50;94758.53;;;13.79;85.83
7768;BME280;3928;42.626;23.382;2023-02-28T08:35:17;94758.34;;;13.88;85.41
7768;BME280;3928;42.626;23.382;2023-02-28T08:37:44;94767.03;;;13.84;84.91
7768;BME280;3928;42.626;23.382;2023-02-28T08:40:12;94769.91;;;14.11;84.55
7768;BME280;3928;42.626;23.382;2023-02-28T08:42:43;94764.56;;;14.17;84.91
7768;BME280;3928;42.626;23.382;2023-02-28T08:45:10;94764.91;;;14.39;82.41
7768;BME280;3928;42.626;23.382;2023-02-28T08:47:37;94759.50;;;14.51;81.99
7768;BME280;3928;42.626;23.382;2023-02-28T08:50:05;94749.50;;;14.36;79.95
7768;BME280;3928;42.626;23.382;2023-02-28T08:52:32;94750.50;;;14.30;78.59
7768;BME280;3928;42.626;23.382;2023-02-28T08:54:59;94766.75;;;14.35;78.43
7768;BME280;3928;42.626;23.382;2023-02-28T08:57:27;94751.66;;;13.80;77.36
7768;BME280;3928;42.626;23.382;2023-02-28T08:59:53;94747.06;;;13.92;75.85
7768;BME280;3928;42.626;23.382;2023-02-28T09:02:20;94760.50;;;13.68;76.51
7768;BME280;3928;42.626;23.382;2023-02-28T09:04:47;94747.34;;;13.40;76.45
7768;BME280;3928;42.626;23.382;2023-02-28T09:07:14;94768.59;;;13.51;77.35
7768;BME280;3928;42.626;23.382;2023-02-28T09:09:41;94747.88;;;13.56;77.07
7768;BME280;3928;42.626;23.382;2023-02-28T09:12:20;94762.13;;;13.72;75.76
7768;BME280;3928;42.626;23.382;2023-02-28T09:14:48;94757.19;;;13.63;75.46
7768;BME280;3928;42.626;23.382;2023-02-28T09:17:15;94760.66;;;13.62;75.12
7768;BME280;3928;42.626;23.382;2023-02-28T09:19:42;94771.97;;;13.93;75.36
7768;BME280;3928;42.626;23.382;2023-02-28T09:22:09;94759.84;;;13.98;76.04
7768;BME280;3928;42.626;23.382;2023-02-28T09:24:37;94718.97;;;13.80;75.37
7768;BME280;3928;42.626;23.382;2023-02-28T09:27:04;94763.03;;;14.10;73.20
7768;BME280;3928;42.626;23.382;2023-02-28T09:29:32;94750.84;;;14.15;72.72
7768;BME280;3928;42.626;23.382;2023-02-28T09:32:01;94763.84;;;14.12;73.98
7768;BME280;3928;42.626;23.382;2023-02-28T09:34:31;94732.28;;;14.00;75.12
7768;BME280;3928;42.626;23.382;2023-02-28T09:36:57;94765.22;;;14.26;73.53
7768;BME280;3928;42.626;23.382;2023-02-28T09:39:24;94761.56;;;14.35;72.49
7768;BME280;3928;42.626;23.382;2023-02-28T09:41:53;94752.13;;;14.34;72.04
7768;BME280;3928;42.626;23.382;2023-02-28T09:44:27;94740.91;;;14.35;72.12
7768;BME280;3928;42.626;23.382;2023-02-28T09:46:57;94730.97;;;14.18;72.86
7768;BME280;3928;42.626;23.382;2023-02-28T09:49:33;94755.66;;;14.30;72.26
7768;BME280;3928;42.626;23.382;2023-02-28T09:52:05;94756.19;;;14.44;71.35
7768;BME280;3928;42.626;23.382;2023-02-28T09:54:34;94723.19;;;14.20;72.78
7768;BME280;3928;42.626;23.382;2023-02-28T09:57:06;94750.78;;;14.18;74.15
7768;BME280;3928;42.626;23.382;2023-02-28T10:00:02;94756.72;;;14.58;74.18
7768;BME280;3928;42.626;23.382;2023-02-28T10:02:46;94748.34;;;14.83;75.92
7768;BME280;3928;42.626;23.382;2023-02-28T10:05:19;94731.81;;;14.88;70.72
7768;BME280;3928;42.626;23.382;2023-02-28T10:07:56;94726.38;;;14.99;70.69
7768;BME280;3928;42.626;23.382;2023-02-28T10:10:30;94745.38;;;15.29;69.49
7768;BME280;3928;42.626;23.382;2023-02-28T10:13:02;94745.44;;;15.57;69.13
7768;BME280;3928;42.626;23.382;2023-02-28T10:15:32;94737.41;;;15.37;69.62
7768;BME280;3928;42.626;23.382;2023-02-28T10:18:04;94725.09;;;15.45;70.31
7768;BME280;3928;42.626;23.382;2023-02-28T10:20:35;94733.63;;;15.48;72.17
7768;BME280;3928;42.626;23.382;2023-02-28T10:23:09;94736.72;;;15.30;71.05
7768;BME280;3928;42.626;23.382;2023-02-28T10:25:39;94732.56;;;15.56;67.68
7768;BME280;3928;42.626;23.382;2023-02-28T10:28:11;94729.72;;;15.34;66.45
7768;BME280;3928;42.626;23.382;2023-02-28T10:30:41;94727.09;;;15.35;66.07
7768;BME280;3928;42.626;23.382;2023-02-28T10:33:17;94716.44;;;15.46;66.11
7768;BME280;3928;42.626;23.382;2023-02-28T10:35:47;94705.25;;;15.45;67.34
7768;BME280;3928;42.626;23.382;2023-02-28T10:38:17;94715.56;;;15.47;68.09
7768;BME280;3928;42.626;23.382;2023-02-28T10:40:44;94701.81;;;15.45;66.70
7768;BME280;3928;42.626;23.382;2023-02-28T10:43:22;94703.56;;;15.13;67.64
7768;BME280;3928;42.626;23.382;2023-02-28T10:45:56;94704.31;;;15.48;67.35
7768;BME280;3928;42.626;23.382;2023-02-28T10:48:30;94689.59;;;15.50;66.34
7768;BME280;3928;42.626;23.382;2023-02-28T10:51:00;94663.59;;;15.55;64.91
7768;BME280;3928;42.626;23.382;2023-02-28T10:53:33;94683.84;;;15.98;63.17
7768;BME280;3928;42.626;23.382;2023-02-28T10:56:02;94670.50;;;16.12;62.86
7768;BME280;3928;42.626;23.382;2023-02-28T10:58:31;94676.56;;;16.37;63.01
7768;BME280;3928;42.626;23.382;2023-02-28T11:00:59;94688.31;;;16.47;60.02
7768;BME280;3928;42.626;23.382;2023-02-28T11:03:31;94679.91;;;16.14;61.79
7768;BME280;3928;42.626;23.382;2023-02-28T11:06:06;94567.19;;;15.21;62.74
7768;BME280;3928;42.626;23.382;2023-02-28T11:08:44;94665.66;;;16.27;62.73
7768;BME280;3928;42.626;23.382;2023-02-28T11:11:13;94661.06;;;16.35;60.98
7768;BME280;3928;42.626;23.382;2023-02-28T11:13:44;94640.00;;;16.46;62.38
7768;BME280;3928;42.626;23.382;2023-02-28T11:16:13;94663.69;;;16.85;60.29
7768;BME280;3928;42.626;23.382;2023-02-28T11:18:42;94667.38;;;17.27;60.18
7768;BME280;3928;42.626;23.382;2023-02-28T11:21:19;94666.78;;;17.43;60.75
7768;BME280;3928;42.626;23.382;2023-02-28T11:23:47;94650.28;;;17.68;57.62
7768;BME280;3928;42.626;23.382;2023-02-28T11:26:16;94667.53;;;17.92;55.53
7768;BME280;3928;42.626;23.382;2023-02-28T11:29:09;94665.53;;;17.53;56.30
7768;BME280;3928;42.626;23.382;2023-02-28T11:31:37;94513.00;;;16.48;55.34
7768;BME280;3928;42.626;23.382;2023-02-28T11:34:23;94664.28;;;16.67;58.17
7768;BME280;3928;42.626;23.382;2023-02-28T11:36:54;94665.94;;;16.71;58.34
7768;BME280;3928;42.626;23.382;2023-02-28T11:39:22;94651.81;;;17.03;57.30
7768;BME280;3928;42.626;23.382;2023-02-28T11:42:07;94658.94;;;17.45;56.16
7768;BME280;3928;42.626;23.382;2023-02-28T11:44:49;94656.81;;;16.84;57.55
7768;BME280;3928;42.626;23.382;2023-02-28T11:47:29;94655.66;;;16.42;58.72
7768;BME280;3928;42.626;23.382;2023-02-28T11:50:11;94648.31;;;16.03;62.33
7768;BME280;3928;42.626;23.382;2023-02-28T11:52:47;94650.81;;;16.06;61.46
7768;BME280;3928;42.626;23.382;2023-02-28T11:55:17;94649.41;;;15.96;62.74
7768;BME280;3928;42.626;23.382;2023-02-28T12:00:50;94647.31;;;16.07;62.69
7768;BME280;3928;42.626;23.382;2023-02-28T12:03:27;94624.44;;;16.20;60.09
7768;BME280;3928;42.626;23.382;2023-02-28T12:06:05;94632.38;;;16.15;62.47
7768;BME280;3928;42.626;23.382;2023-02-28T12:08:49;94644.44;;;16.16;61.88
7768;BME280;3928;42.626;23.382;2023-02-28T12:11:30;94656.47;;;15.91;63.03
7768;BME280;3928;42.626;23.382;2023-02-28T12:14:23;94647.22;;;16.36;60.67
7768;BME280;3928;42.626;23.382;2023-02-28T12:17:00;94641.81;;;16.43;61.15
7768;BME280;3928;42.626;23.382;2023-02-28T12:19:37;94641.88;;;16.41;60.42
7768;BME280;3928;42.626;23.382;2023-02-28T12:22:21;94652.09;;;16.19;61.28
7768;BME280;3928;42.626;23.382;2023-02-28T12:25:17;94628.72;;;15.68;63.43
7768;BME280;3928;42.626;23.382;2023-02-28T12:27:48;94639.81;;;15.43;65.13
7768;BME280;3928;42.626;23.382;2023-02-28T12:30:19;94636.53;;;15.66;64.56
7768;BME280;3928;42.626;23.382;2023-02-28T12:32:50;94641.63;;;15.96;62.81
7768;BME280;3928;42.626;23.382;2023-02-28T12:35:22;94610.59;;;16.22;61.54
7768;BME280;3928;42.626;23.382;2023-02-28T12:37:55;94611.56;;;16.18;60.10
7768;BME280;3928;42.626;23.382;2023-02-28T12:40:29;94641.63;;;16.49;59.52
7768;BME280;3928;42.626;23.382;2023-02-28T12:43:02;94648.19;;;16.59;60.82
7768;BME280;3928;42.626;23.382;2023-02-28T12:45:39;94634.41;;;16.32;61.15
7768;BME280;3928;42.626;23.382;2023-02-28T12:48:11;94625.31;;;15.94;62.01
7768;BME280;3928;42.626;23.382;2023-02-28T12:50:40;94637.25;;;15.98;62.18
7768;BME280;3928;42.626;23.382;2023-02-28T12:53:12;94625.03;;;16.03;62.00
7768;BME280;3928;42.626;23.382;2023-02-28T12:55:46;94589.13;;;15.92;61.37
7768;BME280;3928;42.626;23.382;2023-02-28T12:58:20;94639.44;;;16.36;60.52
7768;BME280;3928;42.626;23.382;2023-02-28T13:01:15;94640.63;;;15.73;63.23
7768;BME280;3928;42.626;23.382;2023-02-28T13:04:08;94633.47;;;15.82;62.48
7768;BME280;3928;42.626;23.382;2023-02-28T13:06:58;94624.75;;;15.56;63.73
7768;BME280;3928;42.626;23.382;2023-02-28T13:09:26;94633.19;;;15.33;64.42
7768;BME280;3928;42.626;23.382;2023-02-28T13:11:57;94631.66;;;15.28;64.60
7768;BME280;3928;42.626;23.382;2023-02-28T13:14:26;94637.56;;;15.61;63.59
7768;BME280;3928;42.626;23.382;2023-02-28T13:17:11;94636.50;;;15.94;63.65
7768;BME280;3928;42.626;23.382;2023-02-28T13:19:42;94631.38;;;16.19;60.97
7768;BME280;3928;42.626;23.382;2023-02-28T13:22:18;94626.22;;;15.93;61.74
7768;BME280;3928;42.626;23.382;2023-02-28T13:24:47;94631.63;;;15.57;62.81
7768;BME280;3928;42.626;23.382;2023-02-28T13:27:34;94631.22;;;15.71;61.42
7768;BME280;3928;42.626;23.382;2023-02-28T13:33:39;94634.91;;;15.34;63.61
7768;BME280;3928;42.626;23.382;2023-02-28T13:36:29;94633.19;;;15.33;63.68
7768;BME280;3928;42.626;23.382;2023-02-28T13:38:58;94632.13;;;14.80;66.25
7768;BME280;3928;42.626;23.382;2023-02-28T13:41:44;94629.84;;;15.00;66.13
7768;BME280;3928;42.626;23.382;2023-02-28T13:44:12;94623.75;;;15.03;65.21
7768;BME280;3928;42.626;23.382;2023-02-28T13:47:19;94629.25;;;15.21;64.60